createdAt,value
2022-11-15T00:03:43.761Z,101232.38
2022-11-15T00:09:06.400Z,101235.16
2022-11-15T00:14:28.570Z,101236.02
2022-11-15T00:19:50.792Z,101227.09
2022-11-15T00:25:13.223Z,101233.16
2022-11-15T00:30:36.112Z,101238.48
2022-11-15T00:35:59.626Z,101227.83
2022-11-15T00:41:23.818Z,101212.78
2022-11-15T00:46:46.005Z,101212.70
2022-11-15T00:52:08.330Z,101205.92
2022-11-15T00:57:31.204Z,101199.02
2022-11-15T01:02:54.188Z,101189.30
2022-11-15T01:08:20.110Z,101176.92
2022-11-15T01:13:45.951Z,101177.91
2022-11-15T01:19:08.209Z,101170.14
2022-11-15T01:24:32.298Z,101159.61
2022-11-15T01:29:54.859Z,101159.75
2022-11-15T01:35:17.219Z,101161.03
2022-11-15T01:40:39.399Z,101147.80
2022-11-15T01:46:04.608Z,101146.41
2022-11-15T01:51:30.682Z,101148.29
2022-11-15T01:56:58.076Z,101133.45
2022-11-15T02:02:20.483Z,101129.43
2022-11-15T02:07:43.849Z,101119.64
2022-11-15T02:13:07.273Z,101122.35
2022-11-15T02:18:34.515Z,101110.80
2022-11-15T02:24:31.863Z,101106.67
2022-11-15T02:30:40.970Z,101106.75
2022-11-15T02:36:26.284Z,101107.09
2022-11-15T02:41:59.246Z,101107.23
2022-11-15T02:47:24.693Z,101101.23
2022-11-15T02:52:47.251Z,101096.86
2022-11-15T02:58:38.041Z,101087.15
2022-11-15T03:04:06.209Z,101076.36
2022-11-15T03:09:45.359Z,101082.77
2022-11-15T03:15:27.430Z,101077.44
2022-11-15T03:20:51.170Z,101083.70
2022-11-15T03:26:16.165Z,101076.63
2022-11-15T03:31:51.537Z,101070.51
2022-11-15T03:37:15.488Z,101061.59
2022-11-15T03:42:48.297Z,101050.95
2022-11-15T03:48:27.559Z,101049.11
2022-11-15T03:53:50.206Z,101045.59
2022-11-15T03:59:12.393Z,101041.99
2022-11-15T04:04:34.577Z,101036.00
2022-11-15T04:10:06.808Z,101035.06
2022-11-15T04:15:34.889Z,101031.62
2022-11-15T04:21:14.888Z,101022.44
2022-11-15T04:26:39.080Z,101022.51
2022-11-15T04:32:01.276Z,101015.16
2022-11-15T04:37:23.529Z,101009.84
2022-11-15T04:42:47.424Z,101003.88
2022-11-15T04:48:09.595Z,100997.70
2022-11-15T04:53:32.788Z,101005.45
2022-11-15T04:58:57.839Z,101007.33
2022-11-15T05:04:21.583Z,100995.08
2022-11-15T05:09:43.825Z,100993.36
2022-11-15T05:15:06.029Z,100984.45
2022-11-15T05:20:28.901Z,100970.80
2022-11-15T05:25:51.197Z,100977.05
2022-11-15T05:31:20.381Z,100969.23
2022-11-15T05:36:50.728Z,100968.36
2022-11-15T05:42:21.312Z,100968.28
2022-11-15T05:47:46.779Z,100968.87
2022-11-15T05:53:09.893Z,100966.06
2022-11-15T05:58:32.893Z,100982.30
2022-11-15T06:03:55.109Z,100976.70
2022-11-15T06:09:17.378Z,100978.85
2022-11-15T06:14:39.665Z,100969.07
2022-11-15T06:20:01.973Z,100974.91
2022-11-15T06:25:24.271Z,100971.15
2022-11-15T06:30:50.530Z,100987.11
2022-11-15T06:36:17.554Z,100983.39
2022-11-15T06:41:38.639Z,100986.77
2022-11-15T06:47:00.847Z,100992.24
2022-11-15T06:52:23.513Z,100994.98
2022-11-15T06:57:47.451Z,100988.72
2022-11-15T07:03:11.505Z,100998.11
2022-11-15T07:08:35.165Z,100998.94
2022-11-15T07:13:57.441Z,101000.93
2022-11-15T07:19:19.693Z,101000.85
2022-11-15T07:24:41.857Z,101007.27
2022-11-15T07:30:04.699Z,101003.44
2022-11-15T07:35:26.996Z,101004.33
2022-11-15T07:40:50.103Z,101001.44
2022-11-15T07:46:13.057Z,101000.06
2022-11-15T07:51:36.039Z,100991.38
2022-11-15T07:57:02.550Z,100978.92
2022-11-15T08:02:26.428Z,100971.22
2022-11-15T08:07:51.804Z,100975.41
2022-11-15T08:13:19.288Z,100970.59
2022-11-15T08:18:41.885Z,100974.90
2022-11-15T08:24:04.143Z,100976.39
2022-11-15T08:29:26.491Z,100969.92
2022-11-15T08:34:48.757Z,100969.14
2022-11-15T08:40:11.687Z,100970.26
2022-11-15T08:45:34.088Z,100970.41
2022-11-15T08:50:56.836Z,100959.61
2022-11-15T08:56:22.698Z,100957.72
2022-11-15T09:01:44.994Z,100953.70
2022-11-15T09:07:07.938Z,100957.52
2022-11-15T09:12:30.207Z,100951.45
2022-11-15T09:17:52.474Z,100947.94
2022-11-15T09:23:16.415Z,100950.78
2022-11-15T09:28:39.483Z,100928.89
2022-11-15T09:34:05.720Z,100938.55
2022-11-15T09:39:28.023Z,100934.81
2022-11-15T09:45:30.936Z,100932.84
2022-11-15T09:51:02.499Z,100921.91
2022-11-15T09:56:28.692Z,100921.35
2022-11-15T10:01:58.810Z,100905.53
2022-11-15T10:07:47.210Z,100903.95
2022-11-15T10:13:12.137Z,100897.13
2022-11-15T10:18:44.427Z,100905.92
2022-11-15T10:24:07.302Z,100895.35
2022-11-15T10:29:33.382Z,100890.63
2022-11-15T10:34:57.146Z,100890.87
2022-11-15T10:40:29.369Z,100890.94
2022-11-15T10:45:54.566Z,100885.55
2022-11-15T10:51:20.133Z,100876.61
2022-11-15T10:56:43.151Z,100874.81
2022-11-15T11:02:06.623Z,100874.17
2022-11-15T11:07:33.207Z,100882.63
2022-11-15T11:12:57.271Z,100876.53
2022-11-15T11:18:38.541Z,100881.22
2022-11-15T11:24:31.496Z,100879.50
2022-11-15T11:30:18.202Z,100871.28
2022-11-15T11:35:48.168Z,100859.12
2022-11-15T11:41:24.205Z,100860.58
2022-11-15T11:47:04.630Z,100856.67
2022-11-15T11:52:35.560Z,100849.16
2022-11-15T11:58:22.523Z,100846.73
2022-11-15T12:03:55.654Z,100840.46
2022-11-15T12:09:46.585Z,100843.30
2022-11-15T12:15:19.497Z,100834.44
2022-11-15T12:20:45.640Z,100831.52
2022-11-15T12:26:15.807Z,100829.43
2022-11-15T12:31:48.772Z,100832.17
2022-11-15T12:37:46.785Z,100825.93
2022-11-15T12:43:44.520Z,100828.08
2022-11-15T12:49:17.195Z,100815.44
2022-11-15T12:54:50.111Z,100817.65
2022-11-15T13:00:38.494Z,100809.91
2022-11-15T13:06:07.756Z,100810.00
2022-11-15T13:12:03.365Z,100809.37
2022-11-15T13:17:54.823Z,100801.77
2022-11-15T13:23:30.881Z,100810.23
2022-11-15T13:29:00.333Z,100800.66
2022-11-15T13:34:53.329Z,100804.47
2022-11-15T13:40:02.933Z,100804.29
2022-11-15T13:45:28.261Z,100797.42
2022-11-15T13:50:54.507Z,100798.59
2022-11-15T13:56:17.711Z,100792.89
2022-11-15T14:01:42.699Z,100787.56
2022-11-15T14:07:08.564Z,100789.14
2022-11-15T14:12:46.074Z,100779.75
2022-11-15T14:18:08.620Z,100774.06
2022-11-15T14:23:40.108Z,100771.49
2022-11-15T14:29:02.339Z,100765.80
2022-11-15T14:34:25.471Z,100767.09
2022-11-15T14:39:47.664Z,100752.96
2022-11-15T14:45:10.332Z,100752.19
2022-11-15T14:50:35.437Z,100742.48
2022-11-15T14:55:57.991Z,100741.80
2022-11-15T15:01:31.010Z,100735.75
2022-11-15T15:06:53.870Z,100743.74
2022-11-15T15:12:20.824Z,100735.84
2022-11-15T15:17:43.480Z,100750.27
2022-11-15T15:23:05.740Z,100749.33
2022-11-15T15:28:34.022Z,100751.44
2022-11-15T15:33:52.651Z,100746.20
2022-11-15T15:39:16.791Z,100756.55
2022-11-15T15:44:39.289Z,100745.72
2022-11-15T15:50:02.387Z,100745.34
2022-11-15T15:55:25.733Z,100733.06
2022-11-15T16:00:48.308Z,100738.44
2022-11-15T16:06:10.633Z,100738.52
2022-11-15T16:11:34.593Z,100728.13
2022-11-15T16:16:57.086Z,100723.49
2022-11-15T16:22:19.464Z,100726.16
2022-11-15T16:27:43.857Z,100712.24
2022-11-15T16:33:06.526Z,100715.77
2022-11-15T16:38:31.847Z,100718.08
2022-11-15T16:43:55.441Z,100721.55
2022-11-15T16:49:21.028Z,100728.42
2022-11-15T16:54:44.423Z,100728.42
2022-11-15T17:00:06.694Z,100723.27
2022-11-15T17:05:30.369Z,100732.03
2022-11-15T17:10:53.896Z,100724.90
2022-11-15T17:16:27.609Z,100720.52
2022-11-15T17:21:50.510Z,100729.45
2022-11-15T17:27:13.172Z,100725.76
2022-11-15T17:32:35.543Z,100728.16
2022-11-15T17:37:58.177Z,100723.87
2022-11-15T17:43:20.386Z,100726.45
2022-11-15T17:48:43.997Z,100723.64
2022-11-15T17:54:08.753Z,100718.41
2022-11-15T17:59:32.137Z,100723.87
2022-11-15T18:04:54.513Z,100719.58
2022-11-15T18:10:16.828Z,100721.12
2022-11-15T18:15:39.098Z,100724.95
2022-11-15T18:21:11.686Z,100719.77
2022-11-15T18:26:37.183Z,100712.36
2022-11-15T18:32:00.752Z,100691.45
2022-11-15T18:37:22.941Z,100691.45
2022-11-15T18:42:45.142Z,100685.76
2022-11-15T18:48:07.387Z,100684.81
2022-11-15T18:53:30.183Z,100684.30
2022-11-15T18:58:55.693Z,100687.05
2022-11-15T19:04:22.593Z,100691.42
2022-11-15T19:09:47.013Z,100685.25
2022-11-15T19:15:11.361Z,100682.72
2022-11-15T19:20:33.962Z,100690.80
2022-11-15T19:26:04.495Z,100687.27
2022-11-15T19:31:29.566Z,100698.77
2022-11-15T19:37:03.676Z,100696.20
2022-11-15T19:42:28.081Z,100701.35
2022-11-15T19:47:50.707Z,100695.03
2022-11-15T19:53:12.991Z,100682.89
2022-11-15T19:58:36.837Z,100682.03
2022-11-15T20:04:00.275Z,100682.03
2022-11-15T20:09:26.523Z,100675.68
2022-11-15T20:14:48.809Z,100690.02
2022-11-15T20:20:12.127Z,100691.73
2022-11-15T20:25:39.602Z,100688.13
2022-11-15T20:31:04.695Z,100695.25
2022-11-15T20:36:29.298Z,100687.61
2022-11-15T20:41:51.495Z,100686.89
2022-11-15T20:47:14.415Z,100692.21
2022-11-15T20:52:38.961Z,100693.33
2022-11-15T20:58:02.047Z,100684.70
2022-11-15T21:03:27.850Z,100679.55
2022-11-15T21:09:09.096Z,100681.35
2022-11-15T21:14:31.839Z,100676.03
2022-11-15T21:19:54.300Z,100686.76
2022-11-15T21:25:16.546Z,100671.66
2022-11-15T21:30:38.900Z,100653.89
2022-11-15T21:36:01.829Z,100652.00
2022-11-15T21:41:24.224Z,100655.13
2022-11-15T21:46:48.466Z,100658.64
2022-11-15T21:52:10.711Z,100650.58
2022-11-15T21:57:32.888Z,100642.51
2022-11-15T22:02:55.153Z,100638.91
2022-11-15T22:08:17.611Z,100646.75
2022-11-15T22:13:40.296Z,100641.34
2022-11-15T22:19:02.919Z,100642.20
2022-11-15T22:24:25.671Z,100635.06
2022-11-15T22:29:48.286Z,100630.61
2022-11-15T22:35:11.055Z,100622.62
2022-11-15T22:40:34.039Z,100613.69
2022-11-15T22:46:05.295Z,100616.17
2022-11-15T22:51:28.987Z,100626.77
2022-11-15T22:56:52.408Z,100632.95
2022-11-15T23:02:15.423Z,100616.03
2022-11-15T23:07:38.603Z,100613.37
2022-11-15T23:13:19.530Z,100609.67
2022-11-15T23:18:43.831Z,100620.23
2022-11-15T23:24:06.466Z,100613.20
2022-11-15T23:29:33.194Z,100599.89
2022-11-15T23:34:57.934Z,100603.50
2022-11-15T23:40:21.365Z,100606.33
2022-11-15T23:45:44.579Z,100599.34
2022-11-15T23:51:07.587Z,100598.34
2022-11-15T23:56:34.267Z,100595.83
